Search for airport 
image banner adimage banner ad
image banner ad

FQMA - Maputo / International

Located in Maputo, Mozambique

ICAO - FQMA, IATA - MPM

Data provided by Airmate  

General information

Coordinates: S25°55'15" E32°34'22"
Elevation is 147 feet MSL.
 
View others Airports in Maputo (city)

Operational data

Open for public use
Current time UTC:
Current local time:
Weather
METAR: FQMA 040900Z 11009KT 070V130 9999 SCT025 SCT080 28/17 Q1016 NOSIG
TAF: TAF FQMA 040400Z 0406/0512 34010KT 9999 FEW025 TX31/0413Z TN21/0503Z BECMG 0412/0414 12010KT BECMG 0418/0420 18012KT BECMG 0500/0502 22010KT
View NOTAMs / SUP AIP / TFR affecting this airport [VIEW]
Communications frequencies: [VIEW]

Runways:

RWY identifierQFULength (ft)Width (ft)SurfaceLDA (ft)
105577148
285577148
0529°12008148ASP
2312008148

Airport contact information

Address: Maputo Mozambique

Satellite view of FQMA